»·PEaware :: N6750H KSBS-KABQ

N6750H :: KSBS-KABQ

FLIGHT INFORMATION

Flight Status: Arrived
Operator: Privately registered:
United States
More flights under this callsign
Pilot: Yoel G. (22311)
Aircraft: Unknown
(DA62)
More flights by this aircraft type
Origin: KSBS Steamboat Springs/Adams
United States
Destination: KABQ Albuquerque Intl Sunport
United States
More flights between these airports :: More routes between these airports
Route: BQZ V421 RSK V187 ABQ
File this flight plan on PilotEdge
Remarks:
Altitude:
(Current/Filed)
17,000ft
Speed:
(Current/Filed)
201kts
Departed: 08-Jan-19 06:14 PM
Arrived: 08-Jan-19 08:14 PM
Distance/Time
Traveled:
329nm/2:00
Distance/Time
To Go:
Arrived

Flight Plot

Page will automatically refresh every two minutes.

Flight plan parsing failed; only flown route is shown


Map Options




Map Legend


Flown Route
Filed Route
Departure Airport
Arrival Airport
Navaid (VOR, NDB)
Fix

Horizontal Profiles

Position Reports

Time Latitude Longitude Heading Altitude Ground
Speed
08-Jan-19 17:58 40.517015 -106.864541 142 6856ft 0kts
08-Jan-19 17:59 40.517015 -106.864541 142 6856ft 0kts
08-Jan-19 18:00 40.517015 -106.864541 142 6856ft 0kts
08-Jan-19 18:01 40.517015 -106.864541 142 6856ft 0kts
08-Jan-19 18:02 40.517099 -106.865116 316 6856ft 14kts
08-Jan-19 18:03 40.518396 -106.866947 243 6848ft 0kts
08-Jan-19 18:04 40.518396 -106.866947 243 6848ft 0kts
08-Jan-19 18:05 40.518396 -106.866947 243 6848ft 0kts
08-Jan-19 18:06 40.518396 -106.866947 243 6848ft 0kts
08-Jan-19 18:07 40.518396 -106.866947 243 6848ft 0kts
08-Jan-19 18:08 40.518396 -106.866947 243 6848ft 0kts
08-Jan-19 18:09 40.518396 -106.866947 243 6848ft 0kts
08-Jan-19 18:10 40.518396 -106.866947 243 6848ft 0kts
08-Jan-19 18:11 40.518735 -106.867995 333 6840ft 22kts
08-Jan-19 18:12 40.521357 -106.869719 153 6824ft 0kts
08-Jan-19 18:13 40.510614 -106.862449 152 6857ft 120kts
08-Jan-19 18:14 40.483402 -106.863382 209 8355ft 99kts
08-Jan-19 18:15 40.457176 -106.863974 152 9690ft 103kts
08-Jan-19 18:16 40.432963 -106.843081 146 10955ft 105kts
08-Jan-19 18:17 40.409014 -106.820743 147 12205ft 107kts
08-Jan-19 18:18 40.384567 -106.797814 148 13420ft 110kts
08-Jan-19 18:19 40.361511 -106.776219 149 14524ft 113kts
08-Jan-19 18:20 40.335774 -106.752131 151 15706ft 115kts
08-Jan-19 18:21 40.309354 -106.727427 152 16868ft 118kts
08-Jan-19 18:22 40.277582 -106.697931 149 17234ft 171kts
08-Jan-19 18:23 40.234384 -106.662058 183 17211ft 185kts
08-Jan-19 18:24 40.186444 -106.683606 202 17220ft 185kts
08-Jan-19 18:25 40.137388 -106.705334 202 17222ft 186kts
08-Jan-19 18:26 40.088155 -106.726649 201 17230ft 186kts
08-Jan-19 18:27 40.037674 -106.748416 201 17037ft 190kts
08-Jan-19 18:28 39.987874 -106.769858 201 17045ft 187kts
08-Jan-19 18:29 39.938477 -106.791096 201 17045ft 187kts
08-Jan-19 18:30 39.889255 -106.812233 201 17046ft 187kts
08-Jan-19 18:31 39.839802 -106.833433 201 17046ft 186kts
08-Jan-19 18:32 39.790665 -106.854459 201 17046ft 186kts
08-Jan-19 18:33 39.741615 -106.875419 200 17046ft 185kts
08-Jan-19 18:34 39.694802 -106.895364 201 17510ft 170kts
08-Jan-19 18:35 39.650626 -106.914199 201 18004ft 165kts
08-Jan-19 18:36 39.605280 -106.933531 200 18048ft 178kts
08-Jan-19 18:37 39.557556 -106.953798 200 18046ft 182kts
08-Jan-19 18:38 39.509503 -106.974179 200 18044ft 182kts
08-Jan-19 18:39 39.461214 -106.994637 199 18033ft 182kts
08-Jan-19 18:40 39.412992 -107.015036 199 18022ft 182kts
08-Jan-19 18:41 39.364715 -107.035429 199 18011ft 182kts
08-Jan-19 18:42 39.316657 -107.055691 199 18008ft 182kts
08-Jan-19 18:43 39.268441 -107.075997 199 18007ft 182kts
08-Jan-19 18:44 39.220354 -107.096222 199 18007ft 182kts
08-Jan-19 18:45 39.172295 -107.116407 199 18007ft 182kts
08-Jan-19 18:46 39.124344 -107.136517 199 18007ft 181kts
08-Jan-19 18:47 39.076349 -107.156616 199 18007ft 181kts
08-Jan-19 18:48 39.028412 -107.176679 198 18009ft 181kts
08-Jan-19 18:49 38.980425 -107.196779 196 18027ft 181kts
08-Jan-19 18:50 38.932330 -107.216832 195 18046ft 182kts
08-Jan-19 18:51 38.882987 -107.229509 172 18073ft 182kts
08-Jan-19 18:52 38.829088 -107.223422 171 18074ft 203kts
08-Jan-19 18:53 38.771834 -107.216948 171 18073ft 208kts
08-Jan-19 18:54 38.713890 -107.210413 171 18072ft 209kts
08-Jan-19 18:55 38.655753 -107.203858 171 18072ft 210kts
08-Jan-19 18:56 38.597669 -107.197321 171 18073ft 210kts
08-Jan-19 18:57 38.539604 -107.190797 171 18073ft 210kts
08-Jan-19 18:58 38.481487 -107.184277 171 18073ft 210kts
08-Jan-19 18:59 38.423471 -107.177780 171 18073ft 210kts
08-Jan-19 19:00 38.365259 -107.171271 171 18073ft 210kts
08-Jan-19 19:01 38.307055 -107.164773 171 18073ft 210kts
08-Jan-19 19:02 38.248684 -107.158267 171 18074ft 210kts
08-Jan-19 19:03 38.190415 -107.151783 171 18074ft 210kts
08-Jan-19 19:04 38.132198 -107.145315 171 18074ft 210kts
08-Jan-19 19:05 38.074009 -107.138861 171 18074ft 210kts
08-Jan-19 19:06 38.015708 -107.132404 171 18067ft 211kts
08-Jan-19 19:07 37.957123 -107.125927 171 18060ft 211kts
08-Jan-19 19:08 37.898824 -107.119492 171 18054ft 211kts
08-Jan-19 19:09 37.840393 -107.112808 175 18064ft 204kts
08-Jan-19 19:10 37.786286 -107.107009 177 18049ft 189kts
08-Jan-19 19:11 37.734467 -107.101367 177 18045ft 186kts
08-Jan-19 19:12 37.683022 -107.095731 177 18046ft 185kts
08-Jan-19 19:13 37.631789 -107.090118 177 18045ft 185kts
08-Jan-19 19:14 37.580399 -107.084494 177 18045ft 185kts
08-Jan-19 19:15 37.529289 -107.078909 177 18045ft 185kts
08-Jan-19 19:16 37.478026 -107.073314 177 18045ft 185kts
08-Jan-19 19:17 37.426902 -107.067743 177 18045ft 184kts
08-Jan-19 19:18 37.375679 -107.062168 177 18045ft 184kts
08-Jan-19 19:19 37.324548 -107.056611 177 18044ft 184kts
08-Jan-19 19:20 37.273242 -107.051043 177 18044ft 184kts
08-Jan-19 19:22 37.222085 -107.045498 177 18044ft 184kts
08-Jan-19 19:23 37.171000 -107.039969 177 18044ft 184kts
08-Jan-19 19:24 37.119862 -107.034438 177 18044ft 184kts
08-Jan-19 19:25 37.068814 -107.028915 177 18043ft 184kts
08-Jan-19 19:26 37.017613 -107.023393 178 18043ft 184kts
08-Jan-19 19:27 36.966671 -107.017909 178 18043ft 184kts
08-Jan-19 19:28 36.915652 -107.012437 178 18043ft 184kts
08-Jan-19 19:29 36.864419 -107.006943 179 18047ft 185kts
08-Jan-19 19:30 36.812981 -107.001428 179 18046ft 185kts
08-Jan-19 19:31 36.761504 -106.995915 179 18046ft 186kts
08-Jan-19 19:32 36.709944 -106.990403 179 18046ft 186kts
08-Jan-19 19:33 36.658230 -106.984881 179 18046ft 186kts
08-Jan-19 19:34 36.610055 -106.979743 179 18046ft 187kts
08-Jan-19 19:35 36.558251 -106.974228 179 17985ft 190kts
08-Jan-19 19:36 36.501286 -106.968191 178 16992ft 212kts
08-Jan-19 19:37 36.442129 -106.961876 177 15996ft 215kts
08-Jan-19 19:38 36.382651 -106.955559 177 15052ft 211kts
08-Jan-19 19:39 36.327587 -106.949704 178 15015ft 191kts
08-Jan-19 19:40 36.275241 -106.944191 178 15017ft 187kts
08-Jan-19 19:41 36.223376 -106.938726 178 15017ft 186kts
08-Jan-19 19:41 36.180326 -106.934188 178 15017ft 187kts
08-Jan-19 19:43 36.119717 -106.927806 178 15017ft 187kts
08-Jan-19 19:43 36.076555 -106.923266 178 15017ft 187kts
08-Jan-19 19:44 36.024488 -106.917797 178 15017ft 187kts
08-Jan-19 19:45 35.972608 -106.912354 178 15015ft 188kts
08-Jan-19 19:46 35.920324 -106.906876 178 15011ft 188kts
08-Jan-19 19:48 35.859423 -106.900505 178 15009ft 189kts
08-Jan-19 19:48 35.815707 -106.895937 178 15006ft 189kts
08-Jan-19 19:49 35.763500 -106.890483 178 15016ft 188kts
08-Jan-19 19:50 35.711026 -106.885020 178 15013ft 189kts
08-Jan-19 19:51 35.657679 -106.879220 177 14653ft 204kts
08-Jan-19 19:52 35.599298 -106.872883 177 13669ft 214kts
08-Jan-19 19:53 35.540583 -106.867560 178 12816ft 210kts
08-Jan-19 19:54 35.482561 -106.862711 178 12037ft 208kts
08-Jan-19 19:55 35.425079 -106.858081 178 11289ft 207kts
08-Jan-19 19:56 35.369231 -106.853500 178 11006ft 192kts
08-Jan-19 19:57 35.316776 -106.849057 178 11008ft 187kts
08-Jan-19 19:58 35.264485 -106.847912 187 10654ft 202kts
08-Jan-19 19:59 35.207406 -106.855194 187 9763ft 205kts
08-Jan-19 20:00 35.150951 -106.862349 187 9056ft 202kts
08-Jan-19 20:01 35.096351 -106.869208 187 8019ft 196kts
08-Jan-19 20:02 35.044050 -106.875668 187 8008ft 185kts
08-Jan-19 20:03 34.992965 -106.881732 187 8007ft 184kts
08-Jan-19 20:04 34.941027 -106.887517 187 7637ft 200kts
08-Jan-19 20:05 34.892157 -106.869985 128 7405ft 197kts
08-Jan-19 20:06 34.891097 -106.811655 68 7400ft 188kts
08-Jan-19 20:07 34.916118 -106.757367 40 7402ft 182kts
08-Jan-19 20:08 34.950202 -106.717489 40 7249ft 131kts
08-Jan-19 20:09 34.972802 -106.690284 40 6710ft 106kts
08-Jan-19 20:10 34.991522 -106.667712 40 6193ft 89kts
08-Jan-19 20:11 35.008481 -106.647259 40 5726ft 84kts
08-Jan-19 20:12 35.024900 -106.627338 42 5304ft 64kts
08-Jan-19 20:13 35.032337 -106.618434 40 5309ft 21kts
08-Jan-19 20:14 35.035213 -106.618688 326 5308ft 5kts
08-Jan-19 20:15 35.035882 -106.619167 180 5307ft 2kts

Navigation Log

Ident Type
Flight plan parsing failed, navigation log unavailable